Time;durP1;ratioP1;P1;durP2;ratioP2;P2;SDS_P1;SDS_P2;PMS_P1;PMS_P2;Temp;Humidity;BMP_temperature;BMP_pressure;BME280_temperature;BME280_humidity;BME280_pressure;Samples;Min_cycle;Max_cycle;Signal;HPM_P1;HPM_P2
2021/05/22 00:01:35;;;;;;;7.38;2.25;;;;;;;9.67;84.87;99532.84;4967672;28;20438;-84
2021/05/22 00:04:03;;;;;;;6.28;2.42;;;;;;;9.65;85.11;99532.22;4970998;28;20038;-83
2021/05/22 00:06:31;;;;;;;6.47;2.00;;;;;;;9.61;85.43;99528.25;4984890;28;20065;-83
2021/05/22 00:08:59;;;;;;;5.50;2.00;;;;;;;9.60;85.39;99523.06;4964655;28;20124;-85
2021/05/22 00:11:25;;;;;;;7.30;2.00;;;;;;;9.61;84.99;99522.91;4968132;28;20047;-84
2021/05/22 00:13:51;;;;;;;4.95;2.08;;;;;;;9.64;84.74;99519.03;4966588;28;20115;-84
2021/05/22 00:16:16;;;;;;;4.15;1.67;;;;;;;9.58;84.92;99509.91;4985798;28;20416;-83
2021/05/22 00:18:42;;;;;;;4.65;1.73;;;;;;;9.53;85.46;99512.31;4953812;28;20440;-83
2021/05/22 00:21:08;;;;;;;8.23;1.85;;;;;;;9.58;84.85;99514.41;4971354;28;20062;-84
2021/05/22 00:23:45;;;;;;;5.70;1.60;;;;;;;9.56;84.67;99514.59;4971104;28;20129;-85
2021/05/22 00:26:14;;;;;;;5.45;1.75;;;;;;;9.58;84.62;99501.84;4964132;28;20046;-84
2021/05/22 00:28:42;;;;;;;8.88;1.60;;;;;;;9.57;84.77;99507.38;4979261;28;20496;-83
2021/05/22 00:31:08;;;;;;;3.58;1.75;;;;;;;9.54;84.72;99513.13;4966699;28;20038;-84
2021/05/22 00:33:34;;;;;;;8.55;1.92;;;;;;;9.55;84.54;99506.75;4968851;28;20054;-84
2021/05/22 00:36:01;;;;;;;3.35;1.50;;;;;;;9.56;83.62;99506.56;4964232;28;20042;-83
2021/05/22 00:38:26;;;;;;;5.60;1.70;;;;;;;9.59;83.65;99506.19;4982414;28;20070;-84
2021/05/22 00:40:52;;;;;;;5.63;1.58;;;;;;;9.58;83.43;99517.06;4985954;28;20101;-84
2021/05/22 00:43:18;;;;;;;2.40;1.23;;;;;;;9.60;82.97;99509.69;4984616;28;20038;-83
2021/05/22 00:45:44;;;;;;;3.53;1.20;;;;;;;9.62;82.75;99507.66;4966648;28;20042;-84
2021/05/22 00:48:13;;;;;;;4.32;1.38;;;;;;;9.64;82.34;99503.78;4970163;28;20038;-83
2021/05/22 00:50:41;;;;;;;5.93;1.45;;;;;;;9.64;82.62;99513.66;4952210;28;20057;-82
2021/05/22 00:53:09;;;;;;;5.17;1.43;;;;;;;9.65;81.46;99499.25;4988464;28;20034;-84
2021/05/22 00:55:36;;;;;;;4.40;1.63;;;;;;;9.61;82.05;99504.16;4985632;28;20049;-85
2021/05/22 00:58:03;;;;;;;4.63;1.13;;;;;;;9.61;81.69;99509.50;4984689;28;20507;-85
2021/05/22 01:00:51;;;;;;;4.72;1.58;;;;;;;9.63;80.78;99499.41;4956605;28;20049;-83
2021/05/22 01:03:33;;;;;;;5.78;1.92;;;;;;;9.64;80.99;99503.78;4975229;28;20132;-83
2021/05/22 01:06:18;;;;;;;5.05;1.90;;;;;;;9.63;80.98;99493.22;4948695;28;20655;-83
2021/05/22 01:08:49;;;;;;;5.13;2.20;;;;;;;9.62;80.28;99479.03;4964070;28;20363;-84
2021/05/22 01:11:55;;;;;;;8.23;2.15;;;;;;;9.61;79.67;99477.38;4978193;28;20049;-84
2021/05/22 01:14:44;;;;;;;6.90;1.77;;;;;;;9.60;79.77;99483.72;4974867;28;20117;-84
2021/05/22 01:17:10;;;;;;;;;;;;;;;9.60;79.22;99478.38;4971206;28;20043;-86
2021/05/22 01:19:54;;;;;;;5.75;1.60;;;;;;;9.52;79.34;99469.63;4962407;28;19918;-83
2021/05/22 01:22:23;;;;;;;6.65;1.70;;;;;;;9.53;78.81;99458.75;4989840;28;20046;-85
2021/05/22 01:25:00;;;;;;;3.47;1.00;;;;;;;9.57;78.13;99464.53;4967965;28;20066;-83
2021/05/22 01:27:26;;;;;;;4.95;1.30;;;;;;;9.58;78.51;99458.16;4979457;28;20498;-83
2021/05/22 01:29:57;;;;;;;7.40;1.50;;;;;;;9.58;78.05;99461.69;4961888;28;20112;-83
2021/05/22 01:32:23;;;;;;;5.72;1.30;;;;;;;9.58;77.93;99464.38;4956611;28;20814;-83
2021/05/22 01:34:50;;;;;;;6.68;1.20;;;;;;;9.57;77.47;99454.66;4968911;28;20039;-83
2021/05/22 01:37:18;;;;;;;7.80;1.60;;;;;;;9.59;77.13;99467.88;4976977;28;20498;-83
2021/05/22 01:39:48;;;;;;;4.82;1.30;;;;;;;9.57;76.88;99468.03;4982231;28;20061;-83
2021/05/22 01:42:15;;;;;;;3.67;1.20;;;;;;;9.57;77.10;99460.00;4940522;28;20047;-83
2021/05/22 01:44:45;;;;;;;4.55;1.02;;;;;;;9.54;76.95;99460.38;4975362;28;20034;-83
2021/05/22 01:47:14;;;;;;;4.28;1.30;;;;;;;9.59;76.71;99454.47;4990475;28;20054;-82
2021/05/22 01:49:41;;;;;;;5.70;1.42;;;;;;;9.56;76.93;99461.03;4968059;28;20045;-84
2021/05/22 01:52:07;;;;;;;6.35;1.83;;;;;;;9.57;76.40;99457.31;4980490;28;20046;-83
2021/05/22 01:54:37;;;;;;;6.40;1.35;;;;;;;9.59;75.94;99451.78;4985949;28;20039;-82
2021/05/22 01:57:04;;;;;;;5.30;1.40;;;;;;;9.63;76.04;99450.38;4988601;28;20053;-84
2021/05/22 01:59:35;;;;;;;7.00;1.20;;;;;;;9.64;75.77;99444.03;4975925;28;20045;-83
2021/05/22 02:02:03;;;;;;;6.57;1.63;;;;;;;9.67;75.63;99439.09;4976089;28;20035;-83
2021/05/22 02:04:40;;;;;;;6.80;1.40;;;;;;;9.72;75.66;99438.50;4970087;28;20117;-82
2021/05/22 02:07:08;;;;;;;6.78;2.22;;;;;;;9.74;75.82;99439.16;4981459;28;20424;-83
2021/05/22 02:09:34;;;;;;;7.53;1.40;;;;;;;9.77;75.74;99428.06;4962075;28;20047;-83
2021/05/22 02:12:04;;;;;;;4.15;1.65;;;;;;;9.82;75.37;99441.72;4972178;28;20438;-83
2021/05/22 02:14:34;;;;;;;7.88;1.42;;;;;;;9.83;75.34;99437.19;4968975;28;20034;-82
2021/05/22 02:17:05;;;;;;;5.88;1.30;;;;;;;9.88;74.89;99440.13;4966804;28;20065;-84
2021/05/22 02:19:36;;;;;;;6.63;1.40;;;;;;;9.92;74.92;99441.38;4967610;28;20398;-84
2021/05/22 02:22:10;;;;;;;4.72;1.25;;;;;;;9.91;74.87;99431.69;4984734;28;20046;-83
2021/05/22 02:24:41;;;;;;;5.18;1.55;;;;;;;9.92;74.71;99422.63;4969023;28;21602;-83
2021/05/22 02:27:07;;;;;;;6.38;0.98;;;;;;;9.92;74.39;99427.97;4958586;28;20701;-83
2021/05/22 02:29:36;;;;;;;6.57;1.20;;;;;;;9.91;74.52;99429.84;4973774;28;20046;-84
2021/05/22 02:32:04;;;;;;;4.40;1.13;;;;;;;9.90;74.97;99433.56;4974990;28;20042;-83
2021/05/22 02:34:55;;;;;;;5.82;1.60;;;;;;;9.92;75.24;99433.34;4971118;28;20042;-84
2021/05/22 02:37:30;;;;;;;4.72;1.15;;;;;;;9.93;75.19;99429.66;4986359;28;20057;-85
2021/05/22 02:40:10;;;;;;;5.18;1.15;;;;;;;9.90;74.82;99433.56;4984921;28;20047;-82
2021/05/22 02:42:37;;;;;;;6.40;1.30;;;;;;;9.92;74.84;99436.00;4964953;28;20042;-83
2021/05/22 02:45:13;;;;;;;3.75;1.17;;;;;;;9.94;74.41;99429.44;4972331;28;20643;-82
2021/05/22 02:47:44;;;;;;;4.82;1.00;;;;;;;9.94;74.47;99412.53;4983718;28;20514;-83
2021/05/22 02:50:12;;;;;;;6.30;1.20;;;;;;;9.92;74.62;99409.22;4989218;28;20050;-83
2021/05/22 02:52:39;;;;;;;4.63;1.17;;;;;;;9.93;75.09;99419.75;4959624;28;20042;-84
2021/05/22 02:55:07;;;;;;;6.28;1.30;;;;;;;9.91;74.65;99420.97;4988002;28;20038;-84
2021/05/22 02:57:38;;;;;;;4.30;1.23;;;;;;;9.94;74.86;99423.25;4985611;28;20398;-85
2021/05/22 03:00:06;;;;;;;3.45;0.98;;;;;;;9.92;75.30;99415.41;4987940;28;20117;-85
2021/05/22 03:02:33;;;;;;;3.97;1.40;;;;;;;9.90;75.21;99416.66;4986461;28;20057;-85
2021/05/22 03:04:59;;;;;;;6.55;1.05;;;;;;;9.90;75.03;99425.50;4989859;28;20133;-83
2021/05/22 03:07:24;;;;;;;2.97;0.65;;;;;;;9.91;75.43;99423.66;4979222;28;20033;-82
2021/05/22 03:09:51;;;;;;;5.30;1.58;;;;;;;9.93;75.64;99410.91;4970086;28;20120;-83
2021/05/22 03:12:27;;;;;;;4.97;0.93;;;;;;;9.91;75.94;99410.25;4970668;28;20529;-83
2021/05/22 03:14:52;;;;;;;5.65;1.10;;;;;;;9.91;76.09;99402.22;4972718;28;20046;-84
2021/05/22 03:17:18;;;;;;;5.55;1.30;;;;;;;9.93;76.06;99414.41;4961083;28;20518;-83
2021/05/22 03:19:43;;;;;;;4.18;0.90;;;;;;;9.93;76.29;99410.91;4980328;28;20433;-84
2021/05/22 03:22:09;;;;;;;5.50;1.00;;;;;;;9.95;76.27;99400.78;4960021;28;20071;-83
2021/05/22 03:24:34;;;;;;;7.25;1.58;;;;;;;9.96;75.92;99399.78;4968762;28;20323;-83
2021/05/22 03:27:00;;;;;;;8.38;1.60;;;;;;;10.01;76.33;99402.72;4972965;28;20046;-84
2021/05/22 03:29:25;;;;;;;4.15;1.40;;;;;;;10.01;75.53;99359.00;4987591;28;20065;-83
2021/05/22 03:31:50;;;;;;;6.20;1.60;;;;;;;10.03;75.69;99405.19;4971496;28;20483;-83
2021/05/22 03:34:16;;;;;;;5.75;1.60;;;;;;;10.03;76.33;99400.66;4979953;28;20038;-84
2021/05/22 03:36:41;;;;;;;3.55;1.27;;;;;;;10.04;75.98;99385.41;4958898;28;20046;-84
2021/05/22 03:39:08;;;;;;;6.35;1.63;;;;;;;10.04;75.33;99396.13;4942542;28;20097;-84
2021/05/22 03:41:33;;;;;;;3.90;1.20;;;;;;;10.06;75.53;99394.91;4980178;28;20042;-82
2021/05/22 03:43:59;;;;;;;7.78;1.20;;;;;;;10.09;75.51;99383.78;4948919;28;20042;-83
2021/05/22 03:46:24;;;;;;;6.72;1.85;;;;;;;10.10;75.88;99408.75;4980414;28;20041;-84
2021/05/22 03:48:50;;;;;;;4.28;1.05;;;;;;;10.08;75.90;99398.22;4980466;28;20550;-84
2021/05/22 03:51:15;;;;;;;4.95;1.52;;;;;;;10.12;75.74;99390.63;4976867;28;20050;-83
2021/05/22 03:53:40;;;;;;;3.85;0.85;;;;;;;10.12;75.09;99396.81;4968714;28;20391;-83
2021/05/22 03:56:06;;;;;;;8.32;1.52;;;;;;;10.15;75.67;99390.22;4959059;28;20122;-83
2021/05/22 03:58:32;;;;;;;7.50;1.20;;;;;;;10.14;75.70;99365.28;4979781;28;20050;-83
2021/05/22 04:00:58;;;;;;;4.47;1.10;;;;;;;10.14;75.43;99381.34;4988728;28;20042;-84
2021/05/22 04:03:24;;;;;;;4.80;1.50;;;;;;;10.16;75.77;99406.13;4965035;28;20037;-84
2021/05/22 04:05:49;;;;;;;5.38;1.30;;;;;;;10.13;75.69;99390.44;4995271;28;20030;-84
2021/05/22 04:08:15;;;;;;;5.65;1.15;;;;;;;10.16;75.65;99394.56;4945268;28;20364;-84
2021/05/22 04:10:40;;;;;;;5.57;1.38;;;;;;;10.18;75.73;99397.88;4988648;28;20053;-84
2021/05/22 04:13:07;;;;;;;7.07;1.60;;;;;;;10.17;75.76;99397.06;4980389;28;20113;-84
2021/05/22 04:15:32;;;;;;;10.00;2.25;;;;;;;10.17;75.55;99383.66;4983607;28;20042;-83
2021/05/22 04:17:58;;;;;;;4.00;1.00;;;;;;;10.20;75.67;99385.09;4966554;28;20042;-83
2021/05/22 04:20:24;;;;;;;5.15;1.55;;;;;;;10.20;75.47;99381.59;4967533;28;20042;-83
2021/05/22 04:22:50;;;;;;;8.75;1.50;;;;;;;10.24;76.33;99396.25;4958991;28;20050;-84
2021/05/22 04:25:15;;;;;;;6.47;1.30;;;;;;;10.21;76.01;99393.97;4970356;28;20041;-84
2021/05/22 04:27:40;;;;;;;6.18;1.30;;;;;;;10.21;76.73;99380.56;4971206;28;20070;-83
2021/05/22 04:30:07;;;;;;;5.70;1.48;;;;;;;10.20;76.61;99381.59;4970700;28;20038;-84
2021/05/22 04:32:32;;;;;;;5.25;1.20;;;;;;;10.21;77.03;99385.94;4989602;28;20038;-85
2021/05/22 04:34:58;;;;;;;6.13;1.10;;;;;;;10.21;77.05;99377.88;4959654;28;20109;-83
2021/05/22 04:37:23;;;;;;;6.50;1.63;;;;;;;10.21;77.47;99381.38;4975200;28;20035;-84
2021/05/22 04:39:49;;;;;;;5.05;1.50;;;;;;;10.20;76.96;99408.41;4993824;28;20053;-83
2021/05/22 04:42:15;;;;;;;7.25;2.00;;;;;;;10.19;77.54;99393.38;4995242;28;20041;-84
2021/05/22 04:44:41;;;;;;;4.70;1.25;;;;;;;10.19;77.78;99398.72;4973006;28;20061;-84
2021/05/22 04:47:06;;;;;;;8.82;2.05;;;;;;;10.17;77.56;99399.72;5000156;28;20039;-84
2021/05/22 04:49:31;;;;;;;6.45;1.60;;;;;;;10.19;78.07;99399.56;4961963;28;20042;-84
2021/05/22 04:51:57;;;;;;;7.05;1.60;;;;;;;10.20;78.13;99384.28;4976571;28;20045;-85
2021/05/22 04:54:23;;;;;;;7.50;1.60;;;;;;;10.20;78.28;99395.84;4985999;28;20042;-83
2021/05/22 04:56:48;;;;;;;6.05;1.38;;;;;;;10.16;78.18;99394.56;4967735;28;20049;-83
2021/05/22 04:59:14;;;;;;;5.20;1.30;;;;;;;10.17;77.84;99391.69;4985859;28;20146;-85
2021/05/22 05:01:40;;;;;;;4.28;1.25;;;;;;;10.21;78.42;99383.25;4982577;28;20049;-83
2021/05/22 05:04:07;;;;;;;8.60;2.03;;;;;;;10.20;78.17;99392.34;4993019;28;20053;-84
2021/05/22 05:06:32;;;;;;;8.15;1.95;;;;;;;10.19;78.10;99394.19;4974455;28;20049;-84
2021/05/22 05:08:58;;;;;;;5.95;1.50;;;;;;;10.23;78.47;99384.72;4996495;28;20042;-83
2021/05/22 05:11:24;;;;;;;4.30;1.15;;;;;;;10.24;78.60;99385.53;4977725;28;20446;-83
2021/05/22 05:13:50;;;;;;;4.90;1.35;;;;;;;10.25;79.04;99395.25;4965680;28;20089;-84
2021/05/22 05:16:16;;;;;;;5.75;1.48;;;;;;;10.26;77.90;99388.84;4972491;28;20042;-84
2021/05/22 05:18:43;;;;;;;8.30;2.35;;;;;;;10.31;78.14;99397.19;4966323;28;20101;-83
2021/05/22 05:21:08;;;;;;;9.75;2.92;;;;;;;10.30;77.93;99385.63;4954958;28;20426;-84
2021/05/22 05:23:36;;;;;;;7.43;1.38;;;;;;;10.30;77.75;99392.81;4985638;28;20084;-85
2021/05/22 05:26:03;;;;;;;8.20;1.70;;;;;;;10.33;78.19;99379.88;4982260;28;20039;-85
2021/05/22 05:28:30;;;;;;;8.35;1.58;;;;;;;10.34;77.89;99399.47;4977658;28;20047;-83
2021/05/22 05:30:55;;;;;;;7.13;1.45;;;;;;;10.36;78.11;99405.47;4986651;28;20041;-83
2021/05/22 05:33:20;;;;;;;8.25;1.40;;;;;;;10.34;78.00;99397.63;4972077;28;20042;-84
2021/05/22 05:35:47;;;;;;;6.28;1.77;;;;;;;10.33;77.75;99381.72;4972040;28;20053;-83
2021/05/22 05:38:13;;;;;;;4.90;1.38;;;;;;;10.29;77.93;99392.00;4975173;28;20047;-83
2021/05/22 05:40:40;;;;;;;7.10;1.50;;;;;;;10.33;78.41;99403.19;4964955;28;20038;-84
2021/05/22 05:43:10;;;;;;;9.13;1.50;;;;;;;10.33;78.12;99400.50;4971103;28;20050;-83
2021/05/22 05:45:37;;;;;;;7.22;2.10;;;;;;;10.32;78.81;99405.00;4982579;28;20100;-83
2021/05/22 05:48:02;;;;;;;6.32;1.65;;;;;;;10.30;79.20;99407.09;4959513;28;20050;-85
2021/05/22 05:50:29;;;;;;;4.70;1.42;;;;;;;10.26;79.20;99394.22;4972872;28;20046;-83
2021/05/22 05:52:55;;;;;;;5.20;1.23;;;;;;;10.26;79.29;99383.50;4973699;28;20621;-83
2021/05/22 05:55:21;;;;;;;6.70;1.83;;;;;;;10.24;79.56;99402.47;4972708;28;20108;-82
2021/05/22 05:57:46;;;;;;;6.55;1.77;;;;;;;10.23;79.46;99405.34;4987770;28;20129;-83
2021/05/22 06:00:12;;;;;;;12.55;2.17;;;;;;;10.23;80.26;99418.75;4966680;28;20400;-83
2021/05/22 06:02:37;;;;;;;8.52;2.08;;;;;;;10.23;80.32;99405.34;4954391;28;20039;-85
2021/05/22 06:05:03;;;;;;;5.95;1.65;;;;;;;10.27;80.62;99391.38;4966316;28;20057;-84
2021/05/22 06:07:29;;;;;;;6.60;1.60;;;;;;;10.26;80.69;99426.41;4964073;28;20093;-84
2021/05/22 06:09:54;;;;;;;6.40;1.30;;;;;;;10.22;81.50;99407.19;4963375;28;20034;-83
2021/05/22 06:12:20;;;;;;;5.28;1.77;;;;;;;10.23;82.01;99416.06;4959801;28;20046;-83
2021/05/22 06:14:51;;;;;;;8.02;1.58;;;;;;;10.16;82.46;99424.06;4977154;28;20049;-84
2021/05/22 06:17:16;;;;;;;12.00;1.88;;;;;;;10.10;83.09;99406.91;4969152;28;20046;-82
2021/05/22 06:19:42;;;;;;;10.10;1.75;;;;;;;10.11;82.96;99402.38;4980064;28;20715;-83
2021/05/22 06:22:13;;;;;;;6.78;1.83;;;;;;;10.11;83.19;99413.91;4956765;28;20515;-84
2021/05/22 06:24:40;;;;;;;9.40;2.10;;;;;;;10.10;84.16;99408.75;4965903;28;20053;-84
2021/05/22 06:27:05;;;;;;;9.40;2.00;;;;;;;10.08;85.06;99413.47;4970836;28;20109;-82
2021/05/22 06:29:31;;;;;;;9.05;2.33;;;;;;;10.04;85.44;99409.53;4981964;28;20043;-82
2021/05/22 06:31:57;;;;;;;5.97;1.92;;;;;;;9.99;85.56;99420.84;4957367;28;20045;-83
2021/05/22 06:34:22;;;;;;;9.02;2.33;;;;;;;9.94;87.14;99425.94;4963726;28;20055;-83
2021/05/22 06:36:47;;;;;;;6.13;1.70;;;;;;;9.92;87.05;99415.41;4948576;28;20056;-84
2021/05/22 06:39:14;;;;;;;7.22;1.75;;;;;;;9.91;87.67;99431.69;4967726;28;20124;-84
2021/05/22 06:41:39;;;;;;;8.30;2.22;;;;;;;9.91;87.14;99423.66;4978457;28;20125;-83
2021/05/22 06:44:07;;;;;;;8.50;2.28;;;;;;;9.89;87.68;99428.38;4953433;28;20130;-83
2021/05/22 06:49:01;;;;;;;10.05;2.47;;;;;;;9.83;88.44;99429.13;4983535;28;20046;-82
2021/05/22 06:51:27;;;;;;;8.38;1.77;;;;;;;9.83;89.45;99437.19;4979396;28;20040;-82
2021/05/22 06:53:52;;;;;;;7.22;2.22;;;;;;;9.83;89.23;99432.66;4963358;28;20508;-83
2021/05/22 06:56:17;;;;;;;6.82;1.90;;;;;;;9.77;89.79;99443.31;4981545;28;20039;-82
2021/05/22 06:58:43;;;;;;;8.13;2.17;;;;;;;9.78;89.97;99447.63;4967412;28;20097;-82
2021/05/22 07:01:08;;;;;;;8.15;1.73;;;;;;;9.74;91.13;99449.06;4952459;28;20038;-83
2021/05/22 07:03:34;;;;;;;12.20;2.72;;;;;;;9.74;91.23;99436.47;4947996;28;20085;-83
2021/05/22 07:06:01;;;;;;;13.32;3.05;;;;;;;9.75;91.77;99445.34;4978483;28;20118;-84
2021/05/22 07:08:26;;;;;;;10.88;2.78;;;;;;;9.76;93.18;99452.38;4980466;28;20046;-83
2021/05/22 07:10:53;;;;;;;7.65;2.40;;;;;;;9.70;93.34;99448.63;4984618;28;20371;-84
2021/05/22 07:13:18;;;;;;;11.75;2.33;;;;;;;9.71;92.88;99448.41;4952838;28;20509;-83
2021/05/22 07:15:43;;;;;;;5.38;2.28;;;;;;;9.77;93.44;99454.84;4986247;28;20124;-84
2021/05/22 07:18:09;;;;;;;8.32;2.30;;;;;;;9.76;94.31;99438.97;4996385;28;20050;-84
2021/05/22 07:20:35;;;;;;;10.55;2.83;;;;;;;9.75;93.43;99427.41;4976476;28;20130;-83
2021/05/22 07:23:02;;;;;;;5.65;2.00;;;;;;;9.78;93.08;99453.00;4980167;28;20043;-84
2021/05/22 07:25:31;;;;;;;10.02;2.95;;;;;;;9.81;93.21;99449.94;4951021;28;20070;-84
2021/05/22 07:27:56;;;;;;;5.70;2.05;;;;;;;9.82;92.80;99446.25;4974914;28;20069;-82
2021/05/22 07:30:23;;;;;;;9.52;2.20;;;;;;;9.86;92.09;99455.56;4969414;28;20042;-83
2021/05/22 07:32:55;;;;;;;7.40;2.00;;;;;;;9.85;92.14;99452.03;4953978;28;20094;-83
2021/05/22 07:35:21;;;;;;;8.93;2.80;;;;;;;9.90;93.37;99464.88;4984189;28;20034;-83
2021/05/22 07:37:46;;;;;;;8.48;2.53;;;;;;;9.92;92.48;99444.88;4969463;28;20368;-83
2021/05/22 07:40:13;;;;;;;7.38;2.13;;;;;;;9.88;93.15;99474.94;4971869;28;20451;-83
2021/05/22 07:42:39;;;;;;;9.15;2.35;;;;;;;9.93;93.47;99481.41;4984483;28;20070;-83
2021/05/22 07:45:06;;;;;;;8.85;2.55;;;;;;;9.91;93.24;99483.44;4948971;28;20042;-83
2021/05/22 07:47:33;;;;;;;7.95;2.00;;;;;;;9.90;91.66;99491.69;4984455;28;20030;-83
2021/05/22 07:49:59;;;;;;;8.23;2.20;;;;;;;9.90;92.53;99480.97;4956442;28;20373;-83
2021/05/22 07:52:27;;;;;;;10.90;2.40;;;;;;;9.91;93.38;99482.59;4966989;28;20039;-83
2021/05/22 07:54:53;;;;;;;12.52;3.17;;;;;;;9.93;93.63;99486.75;4969210;28;20043;-83
2021/05/22 07:57:18;;;;;;;5.85;2.58;;;;;;;9.93;92.82;99481.41;4979790;28;20082;-83
2021/05/22 07:59:44;;;;;;;8.40;2.58;;;;;;;9.93;93.30;99492.13;4979379;28;20140;-83
2021/05/22 08:02:09;;;;;;;7.40;2.80;;;;;;;9.96;93.61;99482.88;4987209;28;20045;-83
2021/05/22 08:04:35;;;;;;;8.13;2.22;;;;;;;9.99;93.68;99482.47;4963108;28;20117;-82
2021/05/22 08:07:01;;;;;;;6.13;2.22;;;;;;;10.01;93.46;99504.56;4993746;28;20038;-84
2021/05/22 08:09:26;;;;;;;8.10;2.70;;;;;;;9.98;93.48;99477.28;4974628;28;20042;-84
2021/05/22 08:11:52;;;;;;;8.32;2.50;;;;;;;10.01;94.50;99493.00;4988031;28;20114;-84
2021/05/22 08:14:17;;;;;;;6.40;2.70;;;;;;;10.02;94.18;99500.03;4983193;28;20046;-83
2021/05/22 08:16:43;;;;;;;6.63;1.95;;;;;;;10.00;93.11;99491.34;4992399;28;20034;-83
2021/05/22 08:19:10;;;;;;;8.50;2.55;;;;;;;10.03;94.40;99491.78;4991592;28;20547;-83
2021/05/22 08:21:35;;;;;;;6.82;2.80;;;;;;;10.09;94.03;99493.69;4963628;28;20045;-83
2021/05/22 08:24:01;;;;;;;6.72;2.15;;;;;;;10.10;92.63;99492.69;4967369;28;20113;-82
2021/05/22 08:26:26;;;;;;;5.50;1.80;;;;;;;10.11;92.67;99488.97;4984967;28;20088;-83
2021/05/22 08:28:53;;;;;;;7.80;2.28;;;;;;;10.12;93.50;99504.03;4968641;28;20133;-83
2021/05/22 08:31:19;;;;;;;8.32;2.40;;;;;;;10.09;93.84;99490.19;4966942;28;20552;-83
2021/05/22 08:33:45;;;;;;;4.47;2.53;;;;;;;10.07;94.14;99514.50;4975530;28;20406;-83
2021/05/22 08:36:11;;;;;;;7.72;2.33;;;;;;;10.08;95.22;99516.16;4984458;28;20039;-83
2021/05/22 08:38:36;;;;;;;7.35;1.92;;;;;;;10.05;95.07;99511.19;4986181;28;20050;-84
2021/05/22 08:41:03;;;;;;;7.15;2.40;;;;;;;10.07;95.99;99517.19;4978324;28;20406;-82
2021/05/22 08:43:29;;;;;;;6.68;1.70;;;;;;;10.06;95.19;99512.00;4992072;28;20518;-83
2021/05/22 08:45:54;;;;;;;6.22;2.42;;;;;;;10.07;94.85;99517.19;4975728;28;20116;-83
2021/05/22 08:48:20;;;;;;;7.38;2.08;;;;;;;10.07;94.98;99513.66;4993402;28;20038;-83
2021/05/22 08:50:46;;;;;;;6.32;1.73;;;;;;;10.06;94.88;99518.19;4973540;28;20050;-83
2021/05/22 08:53:12;;;;;;;8.10;1.90;;;;;;;10.09;95.53;99522.34;4973513;28;20046;-83
2021/05/22 08:55:37;;;;;;;4.65;1.67;;;;;;;10.04;95.47;99520.25;4956535;28;20399;-83
2021/05/22 08:58:03;;;;;;;6.82;2.38;;;;;;;10.05;95.94;99503.16;4991692;28;20487;-84
2021/05/22 09:00:31;;;;;;;6.40;2.17;;;;;;;10.03;95.46;99515.91;4974196;28;20491;-83
2021/05/22 09:02:56;;;;;;;4.03;1.90;;;;;;;10.06;96.53;99518.19;4982564;28;20043;-83
2021/05/22 09:05:29;;;;;;;4.10;1.33;;;;;;;10.04;95.80;99533.66;4997454;28;20483;-83
2021/05/22 09:07:59;;;;;;;3.83;1.63;;;;;;;10.05;96.25;99527.28;4957869;28;20042;-83
2021/05/22 09:10:30;;;;;;;5.90;1.60;;;;;;;10.03;96.31;99531.16;4984952;28;20109;-83
2021/05/22 09:13:03;;;;;;;5.03;1.60;;;;;;;10.05;97.44;99538.00;4954692;28;20053;-83
2021/05/22 09:15:32;;;;;;;5.18;1.80;;;;;;;10.09;97.27;99538.44;4992284;28;20053;-84
2021/05/22 09:18:10;;;;;;;5.28;1.48;;;;;;;10.06;97.45;99533.47;4986610;28;20078;-84
2021/05/22 09:20:42;;;;;;;4.70;1.60;;;;;;;10.07;97.51;99537.78;4989844;28;20043;-83
2021/05/22 09:23:10;;;;;;;5.95;2.03;;;;;;;10.05;98.10;99543.34;4974969;28;20095;-84
2021/05/22 09:25:41;;;;;;;5.17;2.10;;;;;;;10.08;98.56;99526.88;4992194;28;20038;-82
2021/05/22 09:28:09;;;;;;;7.13;2.25;;;;;;;10.08;97.85;99537.59;4984863;28;20042;-84
2021/05/22 09:30:37;;;;;;;3.95;1.85;;;;;;;10.03;98.43;99550.75;4989950;28;20050;-83
2021/05/22 09:33:09;;;;;;;5.18;1.45;;;;;;;10.02;98.62;99553.63;4967599;28;20117;-82
2021/05/22 09:35:34;;;;;;;5.95;2.17;;;;;;;10.01;99.16;99558.16;4976009;28;20081;-83
2021/05/22 09:38:02;;;;;;;5.28;2.00;;;;;;;10.03;99.41;99566.81;4988578;28;20053;-83
2021/05/22 09:40:31;;;;;;;5.53;1.90;;;;;;;9.99;99.99;99559.38;4967456;28;20514;-83
2021/05/22 09:42:59;;;;;;;6.13;2.38;;;;;;;10.01;100.00;99568.88;4994780;28;20046;-82
2021/05/22 09:45:43;;;;;;;4.40;2.10;;;;;;;10.04;100.00;99560.47;4991197;28;20053;-83
2021/05/22 09:48:15;;;;;;;3.97;2.13;;;;;;;9.98;100.00;99569.25;4939013;28;20054;-83
2021/05/22 09:50:41;;;;;;;3.72;1.80;;;;;;;9.98;100.00;99574.59;4966948;28;20118;-83
2021/05/22 09:53:34;;;;;;;5.68;2.08;;;;;;;9.97;100.00;99572.94;4992529;28;20046;-83
2021/05/22 09:56:20;;;;;;;4.72;2.15;;;;;;;9.96;100.00;99570.47;4987247;28;20134;-82
2021/05/22 09:58:51;;;;;;;7.55;2.67;;;;;;;9.93;100.00;99579.72;4978065;28;20058;-83
2021/05/22 10:01:19;;;;;;;4.50;2.35;;;;;;;9.94;100.00;99573.34;4953394;28;20707;-83
2021/05/22 10:03:46;;;;;;;5.15;2.53;;;;;;;9.96;100.00;99576.66;4990295;28;20141;-83
2021/05/22 10:06:13;;;;;;;6.63;2.72;;;;;;;10.00;100.00;99585.16;4977975;28;20504;-83
2021/05/22 10:08:39;;;;;;;6.57;2.67;;;;;;;9.95;100.00;99580.34;4985002;28;20042;-82
2021/05/22 10:11:04;;;;;;;6.22;3.00;;;;;;;9.99;100.00;99610.28;4967999;28;20046;-83
2021/05/22 10:13:34;;;;;;;5.57;3.00;;;;;;;9.99;100.00;99587.00;4986144;28;20651;-83
2021/05/22 10:16:01;;;;;;;;;;;;;;;10.02;100.00;99594.66;4971426;28;20096;-83
2021/05/22 10:18:30;;;;;;;6.65;2.80;;;;;;;10.01;100.00;99610.91;4986350;28;19922;-82
2021/05/22 10:20:57;;;;;;;8.95;3.92;;;;;;;10.00;100.00;99602.03;4970846;28;20058;-83
2021/05/22 10:23:24;;;;;;;9.05;2.88;;;;;;;10.04;100.00;99603.34;4981634;28;20053;-83
2021/05/22 10:25:51;;;;;;;9.48;3.53;;;;;;;10.05;100.00;99605.00;4979224;28;20507;-83
2021/05/22 10:28:17;;;;;;;6.30;2.80;;;;;;;10.05;100.00;99614.91;4966914;28;20478;-83
2021/05/22 10:30:46;;;;;;;10.50;3.58;;;;;;;10.05;100.00;99622.94;4961450;28;20451;-83
2021/05/22 10:33:14;;;;;;;5.15;2.92;;;;;;;10.07;100.00;99610.16;4972894;28;20038;-82
2021/05/22 10:35:54;;;;;;;10.43;3.40;;;;;;;10.08;100.00;99627.91;4954717;28;20054;-82
2021/05/22 10:38:32;;;;;;;6.75;3.20;;;;;;;10.04;100.00;99631.97;4973411;28;20065;-83
2021/05/22 10:41:11;;;;;;;6.22;3.42;;;;;;;10.07;100.00;99618.19;4984804;28;20054;-83
2021/05/22 10:44:00;;;;;;;10.63;4.15;;;;;;;10.06;100.00;99625.41;4976244;28;20121;-83
2021/05/22 10:46:29;;;;;;;7.47;3.20;;;;;;;10.08;100.00;99641.31;4977665;28;20430;-83
2021/05/22 10:49:07;;;;;;;6.10;3.42;;;;;;;10.06;100.00;99630.78;4979190;28;20035;-83
2021/05/22 10:51:38;;;;;;;9.32;3.45;;;;;;;10.08;100.00;99635.97;4970417;28;20475;-82
2021/05/22 10:54:13;;;;;;;5.97;4.03;;;;;;;10.10;100.00;99632.06;4965130;28;20069;-84
2021/05/22 10:57:01;;;;;;;10.18;3.83;;;;;;;10.14;100.00;99635.19;4985127;28;21089;-83
2021/05/22 10:59:28;;;;;;;6.87;3.73;;;;;;;10.16;100.00;99638.53;4978471;28;20878;-82
2021/05/22 11:01:55;;;;;;;8.93;4.40;;;;;;;10.17;100.00;99638.31;4985106;28;20081;-83
2021/05/22 11:04:26;;;;;;;10.15;4.32;;;;;;;10.19;100.00;99627.41;4969778;28;20490;-83
2021/05/22 11:06:55;;;;;;;8.38;5.50;;;;;;;10.25;100.00;99631.19;4984668;28;20050;-83
2021/05/22 11:09:27;;;;;;;7.22;4.13;;;;;;;10.27;100.00;99654.16;4955314;28;20043;-83
2021/05/22 11:11:54;;;;;;;7.93;4.50;;;;;;;10.26;100.00;99651.63;4987127;28;20054;-83
2021/05/22 11:14:43;;;;;;;4.95;3.35;;;;;;;10.31;100.00;99668.00;4968281;28;20071;-82
2021/05/22 11:17:25;;;;;;;6.03;4.00;;;;;;;10.38;100.00;99653.63;4954267;28;20042;-83
2021/05/22 11:20:04;;;;;;;6.38;3.88;;;;;;;10.41;100.00;99655.09;4986249;28;20125;-83
2021/05/22 11:22:32;;;;;;;6.60;3.85;;;;;;;10.43;100.00;99658.44;4985479;28;20092;-82
2021/05/22 11:25:03;;;;;;;6.50;3.90;;;;;;;10.46;100.00;99658.03;4986641;28;20049;-83
2021/05/22 11:30:17;;;;;;;7.13;3.67;;;;;;;10.47;100.00;99670.44;4967826;28;20038;-83
2021/05/22 11:33:00;;;;;;;7.28;4.20;;;;;;;10.47;100.00;99669.59;4959395;28;20526;-83
2021/05/22 11:35:26;;;;;;;8.52;3.95;;;;;;;10.46;100.00;99676.00;4976598;28;20046;-82
2021/05/22 11:38:18;;;;;;;10.68;4.25;;;;;;;10.41;100.00;99668.50;4981124;28;20129;-84
2021/05/22 11:40:44;;;;;;;8.95;4.10;;;;;;;10.43;100.00;99674.50;4970103;28;20478;-83
2021/05/22 11:43:15;;;;;;;9.93;4.22;;;;;;;10.45;100.00;99683.22;4973037;28;20053;-83
2021/05/22 11:45:46;;;;;;;7.68;4.07;;;;;;;10.44;100.00;99680.72;4974848;28;20046;-83
2021/05/22 11:48:37;;;;;;;7.07;3.80;;;;;;;10.45;100.00;99688.56;4968128;28;20554;-82